Time;durP1;ratioP1;P1;durP2;ratioP2;P2;SDS_P1;SDS_P2;PMS_P1;PMS_P2;Temp;Humidity;BMP_temperature;BMP_pressure;BME280_temperature;BME280_humidity;BME280_pressure;Samples;Min_cycle;Max_cycle;Signal;HPM_P1;HPM_P2
2023/01/17 00:01:28;;;;;;;;;;;;;;;3.48;69.68;98412.97;7364095;19;19933;-59
2023/01/17 00:11:47;;;;;;;;;;;;;;;3.43;70.53;98408.28;7362030;19;20393;-60
2023/01/17 00:14:13;;;;;;;;;;;;;;;3.43;70.40;98422.09;7365031;19;19927;-61
2023/01/17 00:16:40;;;;;;;;;;;;;;;3.44;70.61;98420.31;7365190;19;19933;-58
2023/01/17 01:33:55;;;;;;;;;;;;;;;3.17;69.82;98381.72;7369404;19;19929;-60
2023/01/17 01:36:22;;;;;;;;;;;;;;;3.18;70.71;98378.97;7365121;19;19983;-60
2023/01/17 01:38:49;;;;;;;;;;;;;;;3.21;70.89;98375.22;7363686;19;20018;-57
2023/01/17 01:41:16;;;;;;;;;;;;;;;3.22;70.85;98371.66;7369154;19;19930;-60
2023/01/17 01:43:44;;;;;;;;;;;;;;;3.23;70.63;98366.28;7368583;19;20025;-59
2023/01/17 01:46:14;;;;;;;;;;;;;;;3.25;70.16;98371.34;7368498;19;19927;-59
2023/01/17 01:48:49;;;;;;;;;;;;;;;3.22;70.30;98366.44;7366640;19;19923;-61
2023/01/17 01:51:18;;;;;;;;;;;;;;;3.21;70.88;98368.25;7369148;19;19931;-60
2023/01/17 01:53:50;;;;;;;;;;;;;;;3.19;71.30;98369.41;7364721;19;20536;-62
2023/01/17 01:56:18;;;;;;;;;;;;;;;3.16;71.09;98369.72;7365967;19;19923;-60
2023/01/17 01:58:48;;;;;;;;;;;;;;;3.17;71.89;98382.53;7366829;19;19941;-61
2023/01/17 02:01:16;;;;;;;;;;;;;;;3.15;70.55;98373.31;7368284;19;19923;-62
2023/01/17 02:03:44;;;;;;;;;;;;;;;3.09;70.09;98368.78;7368917;19;19926;-61
2023/01/17 02:06:19;;;;;;;;;;;;;;;3.06;71.05;98367.31;7368505;19;19939;-60
2023/01/17 02:08:46;;;;;;;;;;;;;;;3.08;71.26;98374.94;7369424;19;19930;-59
2023/01/17 02:11:14;;;;;;;;;;;;;;;3.04;70.23;98378.84;7366779;19;21389;-60
2023/01/17 02:13:42;;;;;;;;;;;;;;;3.00;70.23;98379.16;7365767;19;19926;-61
2023/01/17 02:16:10;;;;;;;;;;;;;;;2.97;70.25;98382.09;7365111;19;20512;-56
2023/01/17 02:18:37;;;;;;;;;;;;;;;2.93;69.92;98391.22;7366522;19;19922;-60
2023/01/17 02:21:14;;;;;;;;;;;;;;;2.91;70.08;98393.16;7367219;19;19914;-61
2023/01/17 02:23:43;;;;;;;;;;;;;;;2.86;70.65;98390.22;7367755;19;20283;-61
2023/01/17 02:26:20;;;;;;;;;;;;;;;2.86;71.29;98382.44;7366103;19;19926;-59
2023/01/17 02:28:50;;;;;;;;;;;;;;;2.88;72.42;98379.69;7367319;19;20504;-61
2023/01/17 02:31:25;;;;;;;;;;;;;;;2.90;72.60;98375.13;7368150;19;20260;-57
2023/01/17 02:34:05;;;;;;;;;;;;;;;2.88;71.06;98372.72;7361379;19;20337;-62
2023/01/17 02:36:35;;;;;;;;;;;;;;;2.88;71.00;98367.53;7367231;19;20313;-61
2023/01/17 02:39:07;;;;;;;;;;;;;;;2.87;70.68;98370.28;7363221;19;19922;-59
2023/01/17 02:41:37;;;;;;;;;;;;;;;2.87;71.70;98376.28;7364129;19;19922;-59
2023/01/17 02:44:04;;;;;;;;;;;;;;;2.87;72.08;98372.88;7368469;19;19919;-60
2023/01/17 02:46:30;;;;;;;;;;;;;;;2.86;71.97;98369.47;7367851;19;19960;-60
2023/01/17 02:48:59;;;;;;;;;;;;;;;2.89;72.81;98376.94;7369553;19;19926;-59
2023/01/17 02:51:26;;;;;;;;;;;;;;;2.88;71.97;98369.31;7366543;19;19959;-61
2023/01/17 02:54:03;;;;;;;;;;;;;;;2.88;71.10;98374.50;7368219;19;20578;-60
2023/01/17 02:56:39;;;;;;;;;;;;;;;2.88;71.04;98377.09;7365651;19;20030;-60
2023/01/17 02:59:07;;;;;;;;;;;;;;;2.91;71.59;98369.78;7365505;19;19958;-61
2023/01/17 03:01:44;;;;;;;;;;;;;;;2.93;70.98;98375.63;7367525;19;21066;-59
2023/01/17 03:04:17;;;;;;;;;;;;;;;2.90;69.87;98364.75;7364557;19;19948;-60
2023/01/17 03:06:47;;;;;;;;;;;;;;;2.88;70.78;98362.34;7366221;19;19925;-57
2023/01/17 03:09:16;;;;;;;;;;;;;;;2.89;71.04;98363.16;7365387;19;19926;-62
2023/01/17 03:11:43;;;;;;;;;;;;;;;2.87;71.21;98363.31;7365618;19;19915;-60
2023/01/17 03:14:11;;;;;;;;;;;;;;;2.87;71.94;98352.09;7366352;19;19934;-63
2023/01/17 03:16:38;;;;;;;;;;;;;;;2.88;71.00;98351.13;7364442;19;19922;-59
2023/01/17 03:19:05;;;;;;;;;;;;;;;2.86;70.57;98353.06;7364124;19;20483;-59
2023/01/17 03:21:32;;;;;;;;;;;;;;;2.82;70.52;98351.78;7366034;19;19930;-59
2023/01/17 03:23:59;;;;;;;;;;;;;;;2.78;71.34;98350.50;7363225;19;19946;-62
2023/01/17 03:26:26;;;;;;;;;;;;;;;2.75;72.70;98349.03;7363754;19;19922;-59
2023/01/17 03:28:53;;;;;;;;;;;;;;;2.75;72.99;98354.22;7365793;19;20408;-60
2023/01/17 03:31:20;;;;;;;;;;;;;;;2.74;72.93;98347.44;7365887;19;19950;-60
2023/01/17 03:33:47;;;;;;;;;;;;;;;2.74;73.09;98338.84;7366430;19;19955;-58
2023/01/17 03:36:14;;;;;;;;;;;;;;;2.73;73.28;98334.63;7363291;19;20295;-62
2023/01/17 03:38:41;;;;;;;;;;;;;;;2.70;73.00;98340.13;7363487;19;19941;-61
2023/01/17 03:41:08;;;;;;;;;;;;;;;2.66;73.04;98338.84;7361894;19;20256;-61
2023/01/17 03:43:35;;;;;;;;;;;;;;;2.62;72.47;98347.94;7363434;19;20342;-61
2023/01/17 03:46:03;;;;;;;;;;;;;;;2.59;72.54;98341.28;7364511;19;19923;-61
2023/01/17 03:48:31;;;;;;;;;;;;;;;2.58;72.15;98348.28;7363266;19;19979;-59
2023/01/17 03:50:57;;;;;;;;;;;;;;;2.57;72.83;98344.03;7363936;19;20653;-60
2023/01/17 03:53:25;;;;;;;;;;;;;;;2.58;73.15;98345.66;7365099;19;19957;-61
2023/01/17 03:55:51;;;;;;;;;;;;;;;2.58;72.84;98345.66;7361652;19;20245;-59
2023/01/17 03:58:19;;;;;;;;;;;;;;;2.62;73.15;98337.53;7364664;19;19921;-59
2023/01/17 04:00:46;;;;;;;;;;;;;;;2.63;72.22;98337.38;7364626;19;19922;-59
2023/01/17 04:03:13;;;;;;;;;;;;;;;2.64;72.04;98336.44;7361910;19;19994;-60
2023/01/17 04:05:40;;;;;;;;;;;;;;;2.63;72.36;98337.38;7363488;19;19950;-61
2023/01/17 04:08:07;;;;;;;;;;;;;;;2.60;71.72;98342.88;7366431;19;20075;-60
2023/01/17 04:10:34;;;;;;;;;;;;;;;2.55;70.53;98352.94;7362572;19;19911;-61
2023/01/17 04:13:01;;;;;;;;;;;;;;;2.52;69.63;98342.91;7362840;19;19923;-62
2023/01/17 04:15:27;;;;;;;;;;;;;;;2.48;69.49;98337.25;7365595;19;21416;-59
2023/01/17 04:17:54;;;;;;;;;;;;;;;2.46;69.40;98340.97;7364862;19;19989;-59
2023/01/17 04:20:29;;;;;;;;;;;;;;;2.44;69.68;98338.53;7363115;19;19923;-58
2023/01/17 04:22:56;;;;;;;;;;;;;;;2.48;70.26;98341.63;7358001;19;19918;-59
2023/01/17 04:25:24;;;;;;;;;;;;;;;2.47;70.90;98338.22;7360387;19;19922;-61
2023/01/17 04:27:52;;;;;;;;;;;;;;;2.48;70.88;98329.47;7365197;19;20569;-63
2023/01/17 04:30:19;;;;;;;;;;;;;;;2.48;71.70;98333.84;7361951;19;20304;-59
2023/01/17 04:32:46;;;;;;;;;;;;;;;2.46;71.69;98333.19;7364293;19;19918;-60
2023/01/17 04:35:13;;;;;;;;;;;;;;;2.43;72.23;98328.34;7362613;19;19947;-59
2023/01/17 04:37:40;;;;;;;;;;;;;;;2.41;72.05;98330.28;7364746;19;19931;-61
2023/01/17 04:40:07;;;;;;;;;;;;;;;2.38;71.63;98325.41;7369246;19;19943;-61
2023/01/17 04:42:34;;;;;;;;;;;;;;;2.35;72.07;98330.91;7370245;19;19945;-58
2023/01/17 04:45:02;;;;;;;;;;;;;;;2.35;72.39;98323.13;7371043;19;20349;-59
2023/01/17 04:47:29;;;;;;;;;;;;;;;2.33;71.44;98325.09;7368730;19;20396;-59
2023/01/17 04:49:56;;;;;;;;;;;;;;;2.30;71.35;98326.22;7369019;19;19942;-60
2023/01/17 04:52:24;;;;;;;;;;;;;;;2.27;71.88;98331.75;7370465;19;19919;-59
2023/01/17 04:54:51;;;;;;;;;;;;;;;2.24;72.30;98336.41;7369075;19;19953;-58
2023/01/17 04:57:18;;;;;;;;;;;;;;;2.19;72.06;98323.94;7369293;19;21004;-59
2023/01/17 04:59:46;;;;;;;;;;;;;;;2.19;71.99;98320.53;7368970;19;19926;-61
2023/01/17 05:02:13;;;;;;;;;;;;;;;2.18;72.45;98321.53;7369341;19;19986;-60
2023/01/17 05:04:40;;;;;;;;;;;;;;;2.17;73.17;98323.31;7370430;19;19918;-58
2023/01/17 05:07:07;;;;;;;;;;;;;;;2.17;73.21;98323.31;7369181;19;19935;-58
2023/01/17 05:09:34;;;;;;;;;;;;;;;2.15;72.83;98315.69;7368012;19;20019;-60
2023/01/17 05:12:01;;;;;;;;;;;;;;;2.17;72.40;98320.72;7368240;19;20362;-60
2023/01/17 05:14:28;;;;;;;;;;;;;;;2.14;71.99;98303.69;7369341;19;20340;-61
2023/01/17 05:16:55;;;;;;;;;;;;;;;2.14;72.20;98314.06;7370113;19;19953;-61
2023/01/17 05:19:23;;;;;;;;;;;;;;;2.13;71.80;98316.84;7364306;19;19927;-60
2023/01/17 05:21:50;;;;;;;;;;;;;;;2.11;71.92;98317.00;7368028;19;20419;-59
2023/01/17 05:24:17;;;;;;;;;;;;;;;2.11;73.15;98314.41;7368024;19;21116;-59
2023/01/17 05:26:44;;;;;;;;;;;;;;;2.12;73.08;98323.81;7369138;19;19921;-61
2023/01/17 05:29:11;;;;;;;;;;;;;;;2.11;72.43;98318.75;7367364;19;19915;-60
2023/01/17 05:31:38;;;;;;;;;;;;;;;2.10;72.29;98322.31;7370477;19;19922;-60
2023/01/17 05:34:05;;;;;;;;;;;;;;;2.10;72.66;98310.19;7367061;19;19919;-59
2023/01/17 05:36:32;;;;;;;;;;;;;;;2.13;72.58;98307.25;7366052;19;19923;-61
2023/01/17 05:38:58;;;;;;;;;;;;;;;2.16;72.73;98298.34;7366142;19;19962;-58
2023/01/17 05:41:25;;;;;;;;;;;;;;;2.19;72.82;98298.00;7366443;19;19933;-63
2023/01/17 05:43:52;;;;;;;;;;;;;;;2.21;72.21;98301.25;7369128;19;19927;-59
2023/01/17 05:46:19;;;;;;;;;;;;;;;2.23;72.96;98314.06;7369237;19;19923;-59
2023/01/17 05:48:45;;;;;;;;;;;;;;;2.23;72.63;98314.06;7367607;19;19929;-59
2023/01/17 05:51:12;;;;;;;;;;;;;;;2.21;71.69;98306.44;7366921;19;19922;-60
2023/01/17 05:53:39;;;;;;;;;;;;;;;2.21;72.04;98305.63;7367801;19;20564;-59
2023/01/17 05:56:06;;;;;;;;;;;;;;;2.22;71.45;98318.44;7366272;19;19930;-60
2023/01/17 05:58:33;;;;;;;;;;;;;;;2.21;71.60;98319.41;7367387;19;19946;-61
2023/01/17 06:01:00;;;;;;;;;;;;;;;2.21;72.38;98321.19;7367299;19;19922;-61
2023/01/17 06:03:27;;;;;;;;;;;;;;;2.21;72.18;98323.78;7369938;19;19953;-59
2023/01/17 06:05:53;;;;;;;;;;;;;;;2.21;73.05;98326.38;7369194;19;20336;-60
2023/01/17 06:08:22;;;;;;;;;;;;;;;2.17;73.22;98318.13;7366933;19;19919;-62
2023/01/17 06:10:49;;;;;;;;;;;;;;;2.19;73.26;98328.31;7365571;19;19907;-60
2023/01/17 06:13:19;;;;;;;;;;;;;;;2.20;72.76;98333.34;7366825;19;19927;-61
2023/01/17 06:15:46;;;;;;;;;;;;;;;2.14;71.92;98331.41;7368770;19;19919;-62
2023/01/17 06:18:14;;;;;;;;;;;;;;;2.13;71.74;98330.59;7364545;19;19929;-60
2023/01/17 06:20:42;;;;;;;;;;;;;;;2.09;71.59;98333.66;7365409;19;20847;-59
2023/01/17 06:23:10;;;;;;;;;;;;;;;2.10;72.68;98332.69;7365084;19;19915;-59
2023/01/17 06:25:37;;;;;;;;;;;;;;;2.13;73.04;98333.19;7364313;19;20007;-59
2023/01/17 06:28:06;;;;;;;;;;;;;;;2.16;73.35;98337.25;7366372;19;20337;-57
2023/01/17 06:30:33;;;;;;;;;;;;;;;2.17;72.62;98328.50;7366385;19;21571;-61
2023/01/17 06:33:00;;;;;;;;;;;;;;;2.17;72.39;98331.09;7368372;19;19999;-60
2023/01/17 06:35:27;;;;;;;;;;;;;;;2.13;72.04;98333.19;7366844;19;19918;-60
2023/01/17 06:37:54;;;;;;;;;;;;;;;2.13;72.39;98334.97;7365066;19;20048;-61
2023/01/17 06:40:21;;;;;;;;;;;;;;;2.15;72.80;98336.44;7363137;19;19975;-61
2023/01/17 06:42:48;;;;;;;;;;;;;;;2.15;72.75;98338.22;7366495;19;19930;-61
2023/01/17 06:45:15;;;;;;;;;;;;;;;2.18;72.78;98343.09;7366018;19;19935;-60
2023/01/17 06:47:42;;;;;;;;;;;;;;;2.21;73.40;98347.94;7367084;19;19929;-63
2023/01/17 06:50:11;;;;;;;;;;;;;;;2.23;73.65;98345.19;7365763;19;19919;-61
2023/01/17 06:52:38;;;;;;;;;;;;;;;2.27;73.87;98341.31;7366016;19;19919;-64
2023/01/17 06:55:05;;;;;;;;;;;;;;;2.32;73.74;98342.44;7365689;19;19922;-61
2023/01/17 06:57:32;;;;;;;;;;;;;;;2.34;73.07;98334.47;7366666;19;19926;-60
2023/01/17 06:59:59;;;;;;;;;;;;;;;2.34;73.49;98329.28;7363156;19;19930;-55
2023/01/17 07:02:26;;;;;;;;;;;;;;;2.37;73.82;98331.56;7365163;19;19926;-61
2023/01/17 07:04:53;;;;;;;;;;;;;;;2.38;72.90;98341.78;7366367;19;19919;-61
2023/01/17 07:07:19;;;;;;;;;;;;;;;2.35;73.13;98336.09;7364679;19;19990;-60
2023/01/17 07:09:46;;;;;;;;;;;;;;;2.32;72.79;98339.03;7365564;19;19915;-59
2023/01/17 07:12:13;;;;;;;;;;;;;;;2.29;73.23;98337.56;7363188;19;19958;-59
2023/01/17 07:14:40;;;;;;;;;;;;;;;2.27;74.45;98328.34;7367384;19;19926;-61
2023/01/17 07:17:07;;;;;;;;;;;;;;;2.24;74.33;98333.81;7366612;19;19983;-61
2023/01/17 07:19:34;;;;;;;;;;;;;;;2.21;75.31;98337.56;7362731;19;20440;-60
2023/01/17 07:22:00;;;;;;;;;;;;;;;2.17;75.83;98336.28;7363517;19;19990;-58
2023/01/17 07:24:27;;;;;;;;;;;;;;;2.13;75.60;98340.97;7364948;19;19926;-59
2023/01/17 07:26:54;;;;;;;;;;;;;;;2.15;76.19;98353.78;7364171;19;19959;-59
2023/01/17 07:29:21;;;;;;;;;;;;;;;2.10;76.59;98348.25;7361695;19;19922;-58
2023/01/17 07:31:48;;;;;;;;;;;;;;;2.09;76.86;98351.81;7367062;19;20593;-59
2023/01/17 07:34:15;;;;;;;;;;;;;;;2.11;77.32;98352.47;7365335;19;19998;-60
2023/01/17 07:36:42;;;;;;;;;;;;;;;2.10;76.68;98337.88;7363914;19;19998;-60
2023/01/17 07:39:12;;;;;;;;;;;;;;;2.15;76.94;98346.81;7358095;19;20480;-57
2023/01/17 07:41:40;;;;;;;;;;;;;;;2.15;76.76;98352.00;7362407;19;19921;-59
2023/01/17 07:44:07;;;;;;;;;;;;;;;2.16;76.29;98350.22;7364826;19;19922;-60
2023/01/17 07:46:34;;;;;;;;;;;;;;;2.17;76.86;98351.03;7365757;19;19923;-60
2023/01/17 07:49:01;;;;;;;;;;;;;;;2.14;77.65;98354.72;7364405;19;19919;-60
2023/01/17 07:51:28;;;;;;;;;;;;;;;2.11;77.83;98352.47;7364131;19;19926;-59
2023/01/17 07:53:55;;;;;;;;;;;;;;;2.13;78.64;98359.09;7366415;19;19919;-59
2023/01/17 07:56:22;;;;;;;;;;;;;;;2.57;91.54;98358.81;7363333;19;19922;-59
2023/01/17 07:58:49;;;;;;;;;;;;;;;2.62;90.39;98361.72;7361100;19;19927;-56
2023/01/17 08:01:16;;;;;;;;;;;;;;;2.58;84.79;98366.44;7362741;19;19957;-61
2023/01/17 08:03:43;;;;;;;;;;;;;;;2.51;81.39;98356.84;7362275;19;20468;-61
2023/01/17 08:06:11;;;;;;;;;;;;;;;2.50;80.27;98363.00;7362003;19;19927;-59
2023/01/17 08:08:38;;;;;;;;;;;;;;;2.49;79.62;98366.56;7363764;19;19926;-58
2023/01/17 08:11:05;;;;;;;;;;;;;;;2.46;79.55;98362.53;7353296;19;19927;-59
2023/01/17 08:13:32;;;;;;;;;;;;;;;2.43;79.80;98365.47;7360723;19;19943;-56
2023/01/17 08:16:01;;;;;;;;;;;;;;;2.43;79.51;98362.06;7364453;19;19982;-58
2023/01/17 08:18:28;;;;;;;;;;;;;;;2.41;79.83;98362.22;7338846;19;20015;-60
2023/01/17 08:20:55;;;;;;;;;;;;;;;2.43;79.53;98362.88;7348678;19;19919;-60
2023/01/17 08:23:22;;;;;;;;;;;;;;;2.46;79.75;98362.53;7359853;19;19929;-60
2023/01/17 08:25:49;;;;;;;;;;;;;;;2.44;79.41;98364.47;7357816;19;19971;-60
2023/01/17 08:28:16;;;;;;;;;;;;;;;2.46;79.70;98366.91;7363026;19;19927;-60
2023/01/17 08:30:43;;;;;;;;;;;;;;;2.46;79.57;98353.94;7360368;19;19940;-62
2023/01/17 08:33:10;;;;;;;;;;;;;;;2.47;79.83;98366.75;7363259;19;19919;-59
2023/01/17 08:35:37;;;;;;;;;;;;;;;2.50;79.97;98366.41;7361454;19;19927;-60
2023/01/17 08:38:04;;;;;;;;;;;;;;;2.50;79.78;98363.00;7361644;19;20392;-60
2023/01/17 08:40:32;;;;;;;;;;;;;;;2.48;79.91;98367.56;7357218;19;20404;-60
2023/01/17 08:42:59;;;;;;;;;;;;;;;2.51;79.98;98370.63;7360952;19;19987;-61
2023/01/17 08:45:27;;;;;;;;;;;;;;;2.58;79.80;98368.22;7360416;19;21274;-57
2023/01/17 08:47:56;;;;;;;;;;;;;;;2.62;79.40;98377.28;7358586;19;20476;-58
2023/01/17 08:50:24;;;;;;;;;;;;;;;2.64;79.08;98374.53;7360592;19;19923;-56
2023/01/17 08:52:56;;;;;;;;;;;;;;;2.64;78.91;98382.31;7361634;19;19918;-58
2023/01/17 08:55:26;;;;;;;;;;;;;;;2.64;78.95;98384.91;7356104;19;19934;-61
2023/01/17 08:57:53;;;;;;;;;;;;;;;2.66;78.89;98386.34;7360934;19;19923;-60
2023/01/17 09:00:20;;;;;;;;;;;;;;;2.68;78.84;98388.81;7359738;19;20539;-60
2023/01/17 09:02:49;;;;;;;;;;;;;;;2.67;78.37;98384.59;7364937;19;19933;-61
2023/01/17 09:05:16;;;;;;;;;;;;;;;2.67;78.05;98388.00;7359321;19;19927;-58
2023/01/17 09:07:43;;;;;;;;;;;;;;;2.67;77.42;98400.97;7362575;19;19917;-59
2023/01/17 09:10:11;;;;;;;;;;;;;;;2.66;77.24;98398.53;7360384;19;20961;-60
2023/01/17 09:12:39;;;;;;;;;;;;;;;2.70;76.90;98400.63;7361178;19;19919;-60
2023/01/17 09:15:06;;;;;;;;;;;;;;;2.74;77.17;98403.72;7359114;19;19922;-58
2023/01/17 09:17:33;;;;;;;;;;;;;;;2.81;77.34;98405.50;7361192;19;19921;-60
2023/01/17 09:20:00;;;;;;;;;;;;;;;2.83;77.52;98406.16;7357107;19;20006;-57
2023/01/17 09:22:27;;;;;;;;;;;;;;;2.84;77.52;98414.75;7361062;19;19978;-59
2023/01/17 09:24:53;;;;;;;;;;;;;;;2.84;76.65;98420.75;7366990;19;20378;-59
2023/01/17 09:27:20;;;;;;;;;;;;;;;2.86;76.47;98423.16;7365356;19;20182;-59
2023/01/17 09:29:47;;;;;;;;;;;;;;;2.92;76.93;98414.72;7367859;19;19922;-58
2023/01/17 09:32:16;;;;;;;;;;;;;;;2.96;76.57;98418.63;7366973;19;19933;-61
2023/01/17 09:34:43;;;;;;;;;;;;;;;3.03;77.33;98418.78;7369914;19;20021;-61
2023/01/17 09:37:10;;;;;;;;;;;;;;;3.06;76.73;98434.84;7364992;19;19930;-60
2023/01/17 09:39:37;;;;;;;;;;;;;;;3.10;76.37;98423.13;7367116;19;19938;-60
2023/01/17 09:42:13;;;;;;;;;;;;;;;3.09;75.71;98433.72;7366528;19;19914;-61
2023/01/17 09:44:42;;;;;;;;;;;;;;;3.13;75.63;98440.19;7366524;19;19910;-59
2023/01/17 09:47:12;;;;;;;;;;;;;;;3.16;75.97;98447.63;7370491;19;19931;-60
2023/01/17 09:49:42;;;;;;;;;;;;;;;3.23;75.86;98448.59;7369546;19;19938;-60
2023/01/17 09:52:12;;;;;;;;;;;;;;;3.23;75.81;98452.03;7366323;19;20258;-61
2023/01/17 09:54:41;;;;;;;;;;;;;;;3.27;77.21;98448.09;7364203;19;19998;-59
2023/01/17 09:57:17;;;;;;;;;;;;;;;3.26;75.97;98456.88;7368758;19;20013;-61
2023/01/17 09:59:44;;;;;;;;;;;;;;;3.28;75.94;98459.31;7364996;19;19942;-61
2023/01/17 10:02:29;;;;;;;;;;;;;;;3.29;75.80;98463.53;7368972;19;19942;-61
2023/01/17 10:05:05;;;;;;;;;;;;;;;3.33;75.71;98459.63;7364518;19;19939;-59
2023/01/17 10:07:33;;;;;;;;;;;;;;;3.35;75.40;98466.25;7366803;19;19953;-61
2023/01/17 10:10:10;;;;;;;;;;;;;;;3.36;75.19;98467.91;7365526;19;20307;-60
2023/01/17 10:12:44;;;;;;;;;;;;;;;3.34;75.29;98466.47;7370325;19;19986;-61
2023/01/17 10:15:14;;;;;;;;;;;;;;;3.35;76.20;98473.28;7366651;19;19927;-61
2023/01/17 10:17:49;;;;;;;;;;;;;;;3.34;76.56;98461.25;7366990;19;21054;-59
2023/01/17 10:20:32;;;;;;;;;;;;;;;3.33;76.20;98473.44;7363541;19;19918;-60
2023/01/17 10:23:16;;;;;;;;;;;;;;;3.37;76.52;98473.91;7368674;19;19943;-63
2023/01/17 10:25:47;;;;;;;;;;;;;;;3.41;76.24;98478.59;7365027;19;19982;-60
2023/01/17 10:28:16;;;;;;;;;;;;;;;3.43;75.96;98479.25;7366335;19;20470;-61
2023/01/17 10:30:52;;;;;;;;;;;;;;;3.48;75.97;98477.94;7365724;19;20296;-59
2023/01/17 10:33:22;;;;;;;;;;;;;;;3.49;75.76;98479.56;7369424;19;19958;-59
2023/01/17 10:35:53;;;;;;;;;;;;;;;3.52;75.53;98476.63;7364269;19;19926;-60
2023/01/17 10:38:24;;;;;;;;;;;;;;;3.54;75.73;98478.09;7367341;19;19943;-60
2023/01/17 10:40:55;;;;;;;;;;;;;;;3.59;74.79;98485.41;7362985;19;19955;-59
2023/01/17 10:43:32;;;;;;;;;;;;;;;3.61;74.78;98486.03;7364678;19;20412;-61
2023/01/17 10:46:00;;;;;;;;;;;;;;;3.65;74.98;98485.56;7324809;19;19990;-55
2023/01/17 10:48:34;;;;;;;;;;;;;;;3.68;74.86;98489.59;7364060;19;19923;-59
2023/01/17 10:51:10;;;;;;;;;;;;;;;3.70;75.05;98488.47;7364259;19;20296;-61
2023/01/17 10:53:44;;;;;;;;;;;;;;;3.73;75.22;98492.50;7366132;19;19933;-60
2023/01/17 10:56:13;;;;;;;;;;;;;;;3.73;75.38;98485.50;7363135;19;20887;-58
2023/01/17 10:58:40;;;;;;;;;;;;;;;3.73;74.77;98485.50;7364500;19;19929;-59
2023/01/17 11:01:15;;;;;;;;;;;;;;;3.74;74.62;98484.53;7360888;19;19927;-59
2023/01/17 11:03:44;;;;;;;;;;;;;;;3.79;74.69;98478.84;7364536;19;20614;-61
2023/01/17 11:06:14;;;;;;;;;;;;;;;3.79;74.18;98484.84;7362412;19;19952;-61
2023/01/17 11:08:50;;;;;;;;;;;;;;;3.82;73.63;98479.28;7364912;19;19934;-61
2023/01/17 11:11:17;;;;;;;;;;;;;;;3.84;73.27;98484.34;7360368;19;19972;-61
2023/01/17 11:13:46;;;;;;;;;;;;;;;3.87;73.31;98482.19;7363079;19;19946;-60
2023/01/17 11:16:20;;;;;;;;;;;;;;;3.91;73.51;98490.50;7362708;19;20370;-59
2023/01/17 11:18:47;;;;;;;;;;;;;;;3.96;73.88;98490.81;7365827;19;19925;-61
2023/01/17 11:21:16;;;;;;;;;;;;;;;3.99;74.41;98487.84;7362091;19;19949;-60
2023/01/17 11:23:44;;;;;;;;;;;;;;;4.04;74.06;98487.34;7364293;19;19923;-62
2023/01/17 11:26:19;;;;;;;;;;;;;;;4.10;74.40;98486.66;7361989;19;19982;-60
2023/01/17 11:28:46;;;;;;;;;;;;;;;4.16;74.43;98486.81;7362295;19;20190;-57
2023/01/17 11:31:15;;;;;;;;;;;;;;;4.20;74.76;98472.47;7364533;19;20333;-59
2023/01/17 11:33:44;;;;;;;;;;;;;;;4.24;74.08;98472.94;7361325;19;19915;-60
2023/01/17 11:36:17;;;;;;;;;;;;;;;4.25;72.92;98474.56;7359077;19;19947;-59
2023/01/17 11:38:53;;;;;;;;;;;;;;;4.28;72.78;98471.59;7361840;19;19929;-60
2023/01/17 11:41:21;;;;;;;;;;;;;;;4.30;72.78;98467.88;7360136;19;19919;-62
2023/01/17 11:43:50;;;;;;;;;;;;;;;4.34;72.19;98463.13;7362542;19;19944;-57
2023/01/17 11:46:19;;;;;;;;;;;;;;;4.37;72.06;98469.78;7358570;19;20018;-57
2023/01/17 11:48:48;;;;;;;;;;;;;;;4.40;72.07;98470.25;7357110;19;19919;-60
2023/01/17 11:51:17;;;;;;;;;;;;;;;4.42;72.36;98472.69;7363175;19;19957;-62
2023/01/17 11:53:47;;;;;;;;;;;;;;;4.44;72.37;98466.31;7364080;19;19943;-62
2023/01/17 11:56:18;;;;;;;;;;;;;;;4.44;71.77;98468.91;7358367;19;19991;-61
2023/01/17 11:58:46;;;;;;;;;;;;;;;4.43;72.14;98463.88;7362325;19;20265;-61
2023/01/17 12:01:14;;;;;;;;;;;;;;;4.45;72.00;98462.72;7361917;19;19923;-62
2023/01/17 12:03:41;;;;;;;;;;;;;;;4.47;71.71;98465.94;7362879;19;19926;-59
2023/01/17 12:06:08;;;;;;;;;;;;;;;4.49;71.77;98460.56;7360893;19;19942;-58
2023/01/17 12:08:36;;;;;;;;;;;;;;;4.49;71.61;98464.00;7362869;19;19963;-61
2023/01/17 12:11:06;;;;;;;;;;;;;;;4.51;71.82;98450.81;7360871;19;19918;-60
2023/01/17 12:19:04;;;;;;;;;;;;;;;4.58;71.94;98456.94;7361750;19;19922;-61
2023/01/17 12:21:39;;;;;;;;;;;;;;;4.59;72.11;98453.34;7358996;19;19986;-62
2023/01/17 12:24:16;;;;;;;;;;;;;;;4.63;72.61;98449.41;7360819;19;20021;-61
2023/01/17 12:26:52;;;;;;;;;;;;;;;4.63;72.22;98454.59;7360833;19;20015;-61
2023/01/17 12:29:28;;;;;;;;;;;;;;;4.64;72.03;98458.84;7360223;19;20169;-60
2023/01/17 12:32:04;;;;;;;;;;;;;;;4.66;72.30;98454.28;7364607;19;19927;-60
2023/01/17 12:34:34;;;;;;;;;;;;;;;4.64;71.84;98449.25;7362708;19;19939;-60
2023/01/17 12:37:07;;;;;;;;;;;;;;;4.66;72.22;98449.88;7359277;19;19919;-60
2023/01/17 12:39:37;;;;;;;;;;;;;;;4.69;71.66;98459.13;7362210;19;20586;-61
2023/01/17 12:42:04;;;;;;;;;;;;;;;4.69;71.83;98457.34;7363977;19;19923;-60
2023/01/17 12:44:37;;;;;;;;;;;;;;;4.71;71.57;98451.97;7362447;19;19927;-60
2023/01/17 12:47:04;;;;;;;;;;;;;;;4.72;72.02;98462.19;7355151;19;19988;-60
2023/01/17 12:49:37;;;;;;;;;;;;;;;4.73;71.98;98463.81;7355166;19;20020;-59
2023/01/17 12:52:17;;;;;;;;;;;;;;;4.74;71.75;98462.84;7362978;19;19929;-60
2023/01/17 12:54:46;;;;;;;;;;;;;;;4.76;72.10;98459.25;7358334;19;19921;-62
2023/01/17 12:57:17;;;;;;;;;;;;;;;4.79;71.97;98461.50;7358180;19;19927;-59
2023/01/17 12:59:49;;;;;;;;;;;;;;;4.81;71.58;98459.53;7366639;19;20009;-60
2023/01/17 13:02:16;;;;;;;;;;;;;;;4.85;70.99;98455.59;7367184;19;19940;-59
2023/01/17 13:04:48;;;;;;;;;;;;;;;4.84;71.13;98456.56;7368268;19;19919;-63
2023/01/17 13:07:24;;;;;;;;;;;;;;;4.85;71.13;98447.78;7367021;19;19926;-61
2023/01/17 13:09:58;;;;;;;;;;;;;;;4.85;71.48;98455.59;7366331;19;20396;-63
2023/01/17 13:12:28;;;;;;;;;;;;;;;4.86;71.30;98458.03;7369011;19;20321;-61
2023/01/17 13:14:56;;;;;;;;;;;;;;;4.88;71.29;98458.66;7369274;19;20258;-59
2023/01/17 13:17:24;;;;;;;;;;;;;;;4.89;71.40;98460.28;7367591;19;20572;-60
2023/01/17 13:19:59;;;;;;;;;;;;;;;4.91;71.06;98457.50;7367902;19;20012;-60
2023/01/17 13:22:27;;;;;;;;;;;;;;;4.93;70.59;98460.72;7367560;19;20331;-63
2023/01/17 13:24:59;;;;;;;;;;;;;;;4.92;70.89;98459.94;7365187;19;19922;-58
2023/01/17 13:27:31;;;;;;;;;;;;;;;4.89;70.84;98452.47;7366744;19;19926;-61
2023/01/17 13:30:08;;;;;;;;;;;;;;;4.90;71.05;98458.47;7368327;19;19918;-60
2023/01/17 13:32:35;;;;;;;;;;;;;;;4.89;71.37;98462.88;7369878;19;19923;-60
2023/01/17 13:35:22;;;;;;;;;;;;;;;4.91;70.37;98465.31;7366796;19;19933;-58
2023/01/17 13:37:58;;;;;;;;;;;;;;;4.88;70.23;98476.88;7363292;19;19968;-59
2023/01/17 13:40:31;;;;;;;;;;;;;;;4.85;70.80;98472.03;7364146;19;19926;-57
2023/01/17 13:42:59;;;;;;;;;;;;;;;4.85;71.17;98466.81;7366678;19;19923;-61
2023/01/17 13:45:29;;;;;;;;;;;;;;;4.84;71.26;98473.00;7366042;19;19919;-60
2023/01/17 13:48:17;;;;;;;;;;;;;;;4.86;72.50;98478.06;7367529;19;19919;-60
2023/01/17 13:50:46;;;;;;;;;;;;;;;4.85;71.99;98479.03;7360819;19;19990;-60
2023/01/17 13:53:22;;;;;;;;;;;;;;;4.85;71.11;98479.03;7365017;19;19930;-60
2023/01/17 13:55:52;;;;;;;;;;;;;;;4.86;70.95;98483.25;7366008;19;19919;-60
2023/01/17 13:58:28;;;;;;;;;;;;;;;4.84;70.19;98490.44;7366531;19;20531;-63
2023/01/17 14:00:55;;;;;;;;;;;;;;;4.81;69.99;98488.19;7363956;19;20513;-59
2023/01/17 14:03:31;;;;;;;;;;;;;;;4.78;70.72;98485.91;7368115;19;19927;-61
2023/01/17 14:05:58;;;;;;;;;;;;;;;4.80;71.33;98487.38;7365989;19;19923;-62
2023/01/17 14:08:26;;;;;;;;;;;;;;;4.78;71.00;98491.94;7367024;19;19923;-57
2023/01/17 14:10:53;;;;;;;;;;;;;;;4.78;71.03;98494.53;7363539;19;19910;-60
2023/01/17 14:13:30;;;;;;;;;;;;;;;4.80;71.40;98496.97;7365544;19;19944;-58
2023/01/17 14:15:57;;;;;;;;;;;;;;;4.80;71.53;98496.97;7364214;19;19929;-61
2023/01/17 14:18:31;;;;;;;;;;;;;;;4.81;71.97;98493.41;7365527;19;19945;-61
2023/01/17 14:21:03;;;;;;;;;;;;;;;4.83;72.03;98501.81;7366280;19;19926;-60
2023/01/17 14:23:33;;;;;;;;;;;;;;;4.83;72.20;98504.44;7366623;19;20006;-61
2023/01/17 14:26:12;;;;;;;;;;;;;;;4.81;71.78;98509.84;7361672;19;19926;-61
2023/01/17 14:28:39;;;;;;;;;;;;;;;4.79;72.12;98503.97;7367509;19;19945;-59
2023/01/17 14:31:09;;;;;;;;;;;;;;;4.76;72.93;98504.34;7364695;19;19939;-58
2023/01/17 14:33:38;;;;;;;;;;;;;;;4.71;72.28;98504.88;7367032;19;19923;-62
2023/01/17 14:36:06;;;;;;;;;;;;;;;4.67;72.31;98506.16;7364475;19;19961;-59